CSC6539 ZGGG-ZHHH
Flight info
| Callsign | CSC6539 |
|---|---|
| Flight time | 1h 16m |
| Altitude | 26600 |
| Route | MIKIP A461 BUBDA/K0819S0780 W56 REBIS W56 UPMAT |
| Aircraft | A320/M-SDE3FGHIRWY/LB1 |
Departure
| Time | 2026-05-08 13:48 |
|---|---|
| Airport | Guangzhou Baiyun International Airport (ZGGG) |
Arrival
| Time | 2026-05-08 15:04 |
|---|---|
| Airport | Wuhan Tianhe International Airport (ZHHH) |
| Time | Latitude | Longitude | Altitude | Speed | Heading |
|---|---|---|---|---|---|
| 2026-05-08 13:11 | 23.39998 | 113.30445 | 59 ft | 0 kts | 284° |
| 2026-05-08 13:33 | 23.39996 | 113.30451 | 58 ft | 2 kts | 284° |
| 2026-05-08 13:34 | 23.39992 | 113.30472 | 56 ft | 3 kts | 284° |
| 2026-05-08 13:34 | 23.39987 | 113.30493 | 52 ft | 3 kts | 284° |
| 2026-05-08 13:34 | 23.39982 | 113.30515 | 55 ft | 3 kts | 284° |
| 2026-05-08 13:34 | 23.39978 | 113.30534 | 57 ft | 3 kts | 298° |
| 2026-05-08 13:35 | 23.39967 | 113.30547 | 54 ft | 3 kts | 347° |
| 2026-05-08 13:35 | 23.39947 | 113.30549 | 53 ft | 2 kts | 4° |
| 2026-05-08 13:35 | 23.39940 | 113.30548 | 56 ft | 0 kts | 4° |
| 2026-05-08 13:37 | 23.39957 | 113.30554 | 51 ft | 5 kts | 24° |
| 2026-05-08 13:37 | 23.39977 | 113.30597 | 55 ft | 7 kts | 83° |
| 2026-05-08 13:38 | 23.39965 | 113.30671 | 56 ft | 14 kts | 104° |
| 2026-05-08 13:38 | 23.39945 | 113.30748 | 58 ft | 8 kts | 116° |
| 2026-05-08 13:38 | 23.39900 | 113.30760 | 57 ft | 7 kts | 192° |
| 2026-05-08 13:38 | 23.39838 | 113.30745 | 51 ft | 12 kts | 194° |
| 2026-05-08 13:39 | 23.39765 | 113.30733 | 54 ft | 9 kts | 163° |
| 2026-05-08 13:39 | 23.39743 | 113.30783 | 58 ft | 8 kts | 105° |
| 2026-05-08 13:39 | 23.39727 | 113.30858 | 54 ft | 8 kts | 103° |
| 2026-05-08 13:39 | 23.39700 | 113.30901 | 57 ft | 7 kts | 162° |
| 2026-05-08 13:40 | 23.39647 | 113.30893 | 54 ft | 11 kts | 194° |
| 2026-05-08 13:40 | 23.39530 | 113.30862 | 53 ft | 21 kts | 194° |
| 2026-05-08 13:40 | 23.39378 | 113.30821 | 53 ft | 24 kts | 194° |
| 2026-05-08 13:40 | 23.39208 | 113.30775 | 52 ft | 26 kts | 194° |
| 2026-05-08 13:41 | 23.39035 | 113.30728 | 55 ft | 24 kts | 194° |
| 2026-05-08 13:41 | 23.38871 | 113.30684 | 57 ft | 25 kts | 194° |
| 2026-05-08 13:41 | 23.38702 | 113.30638 | 53 ft | 25 kts | 194° |
| 2026-05-08 13:41 | 23.38538 | 113.30594 | 54 ft | 23 kts | 194° |
| 2026-05-08 13:42 | 23.38377 | 113.30550 | 53 ft | 25 kts | 194° |
| 2026-05-08 13:42 | 23.38208 | 113.30505 | 57 ft | 24 kts | 194° |
| 2026-05-08 13:42 | 23.38045 | 113.30461 | 54 ft | 25 kts | 194° |
| 2026-05-08 13:42 | 23.37882 | 113.30417 | 51 ft | 23 kts | 194° |
| 2026-05-08 13:43 | 23.37726 | 113.30374 | 56 ft | 19 kts | 194° |
| 2026-05-08 13:43 | 23.37643 | 113.30355 | 54 ft | 8 kts | 179° |
| 2026-05-08 13:43 | 23.37614 | 113.30393 | 58 ft | 6 kts | 107° |
| 2026-05-08 13:43 | 23.37603 | 113.30438 | 58 ft | 7 kts | 104° |
| 2026-05-08 13:44 | 23.37586 | 113.30512 | 56 ft | 13 kts | 104° |
| 2026-05-08 13:44 | 23.37565 | 113.30609 | 55 ft | 13 kts | 104° |
| 2026-05-08 13:44 | 23.37545 | 113.30697 | 58 ft | 11 kts | 104° |
| 2026-05-08 13:44 | 23.37501 | 113.30717 | 51 ft | 8 kts | 193° |
| 2026-05-08 13:45 | 23.37428 | 113.30696 | 54 ft | 15 kts | 194° |
| 2026-05-08 13:45 | 23.37290 | 113.30660 | 53 ft | 19 kts | 193° |
| 2026-05-08 13:45 | 23.37157 | 113.30624 | 57 ft | 20 kts | 194° |
| 2026-05-08 13:45 | 23.37048 | 113.30594 | 58 ft | 10 kts | 192° |
| 2026-05-08 13:46 | 23.37001 | 113.30625 | 55 ft | 8 kts | 109° |
| 2026-05-08 13:46 | 23.36991 | 113.30686 | 50 ft | 9 kts | 101° |
| 2026-05-08 13:46 | 23.36980 | 113.30754 | 53 ft | 9 kts | 85° |
| 2026-05-08 13:46 | 23.37018 | 113.30787 | 53 ft | 3 kts | 13° |
| 2026-05-08 13:47 | 23.37020 | 113.30787 | 53 ft | 0 kts | 13° |
| 2026-05-08 13:47 | 23.37234 | 113.30844 | 54 ft | 69 kts | 14° |
| 2026-05-08 13:47 | 23.37902 | 113.31023 | 53 ft | 129 kts | 14° |
| 2026-05-08 13:48 | 23.38929 | 113.31303 | 152 ft | 165 kts | 13° |
| 2026-05-08 13:48 | 23.39996 | 113.31598 | 914 ft | 157 kts | 13° |
| 2026-05-08 13:48 | 23.41064 | 113.31872 | 1481 ft | 163 kts | 14° |
| 2026-05-08 13:48 | 23.42239 | 113.32167 | 1781 ft | 185 kts | 15° |
| 2026-05-08 13:49 | 23.43581 | 113.32508 | 2095 ft | 210 kts | 16° |
| 2026-05-08 13:49 | 23.45064 | 113.32887 | 2706 ft | 223 kts | 16° |
| 2026-05-08 13:49 | 23.46596 | 113.33277 | 3518 ft | 229 kts | 15° |
| 2026-05-08 13:49 | 23.48170 | 113.33681 | 4293 ft | 236 kts | 14° |
| 2026-05-08 13:50 | 23.49794 | 113.34099 | 5029 ft | 244 kts | 14° |
| 2026-05-08 13:50 | 23.51470 | 113.34532 | 5678 ft | 252 kts | 13° |
| 2026-05-08 13:50 | 23.53179 | 113.34974 | 6192 ft | 255 kts | 13° |
| 2026-05-08 13:50 | 23.54922 | 113.35426 | 6984 ft | 259 kts | 13° |
| 2026-05-08 13:51 | 23.56696 | 113.35838 | 7761 ft | 262 kts | 5° |
| 2026-05-08 13:51 | 23.58530 | 113.36000 | 8568 ft | 266 kts | 3° |
| 2026-05-08 13:51 | 23.60389 | 113.36149 | 9364 ft | 270 kts | 3° |
| 2026-05-08 13:51 | 23.62271 | 113.36302 | 10109 ft | 273 kts | 2° |
| 2026-05-08 13:52 | 23.64178 | 113.36458 | 10784 ft | 277 kts | 2° |
| 2026-05-08 13:52 | 23.66113 | 113.36615 | 11462 ft | 280 kts | 2° |
| 2026-05-08 13:52 | 23.68070 | 113.36774 | 12147 ft | 284 kts | 2° |
| 2026-05-08 13:52 | 23.70052 | 113.36940 | 12823 ft | 288 kts | 2° |
| 2026-05-08 13:53 | 23.72062 | 113.37109 | 13503 ft | 291 kts | 1° |
| 2026-05-08 13:53 | 23.74093 | 113.37278 | 14124 ft | 295 kts | 1° |
| 2026-05-08 13:53 | 23.76122 | 113.37447 | 14704 ft | 298 kts | 1° |
| 2026-05-08 13:53 | 23.78201 | 113.37619 | 15302 ft | 301 kts | 0° |
| 2026-05-08 13:54 | 23.80344 | 113.37801 | 15550 ft | 319 kts | 1° |
| 2026-05-08 13:54 | 23.82624 | 113.38007 | 15679 ft | 340 kts | 1° |
| 2026-05-08 13:54 | 23.85054 | 113.38237 | 15802 ft | 360 kts | 2° |
| 2026-05-08 13:54 | 23.87610 | 113.38483 | 15923 ft | 378 kts | 2° |
| 2026-05-08 13:55 | 23.90284 | 113.38744 | 16105 ft | 392 kts | 2° |
| 2026-05-08 13:55 | 23.93026 | 113.39013 | 16523 ft | 399 kts | 2° |
| 2026-05-08 13:55 | 23.98609 | 113.39555 | 17550 ft | 406 kts | 2° |
| 2026-05-08 13:56 | 24.01435 | 113.39824 | 18069 ft | 409 kts | 2° |
| 2026-05-08 13:56 | 24.04287 | 113.40094 | 18556 ft | 413 kts | 2° |
| 2026-05-08 13:56 | 24.07153 | 113.40365 | 19039 ft | 414 kts | 2° |
| 2026-05-08 13:56 | 24.10037 | 113.40637 | 19566 ft | 415 kts | 1° |
| 2026-05-08 13:57 | 24.12918 | 113.40911 | 20074 ft | 416 kts | 1° |
| 2026-05-08 13:57 | 24.15821 | 113.41190 | 20554 ft | 418 kts | 1° |
| 2026-05-08 13:57 | 24.18684 | 113.41464 | 21019 ft | 419 kts | 0° |
| 2026-05-08 13:57 | 24.21598 | 113.41684 | 21480 ft | 420 kts | 359° |
| 2026-05-08 13:58 | 24.24514 | 113.41813 | 21936 ft | 420 kts | 357° |
| 2026-05-08 13:58 | 24.27450 | 113.41889 | 22383 ft | 422 kts | 356° |
| 2026-05-08 13:58 | 24.30385 | 113.41940 | 22807 ft | 423 kts | 356° |
| 2026-05-08 13:58 | 24.33334 | 113.41993 | 23224 ft | 425 kts | 356° |
| 2026-05-08 13:59 | 24.36296 | 113.42061 | 23667 ft | 426 kts | 356° |
| 2026-05-08 13:59 | 24.39268 | 113.42137 | 23974 ft | 429 kts | 356° |
| 2026-05-08 13:59 | 24.42258 | 113.42217 | 24289 ft | 431 kts | 356° |
| 2026-05-08 13:59 | 24.45266 | 113.42305 | 24588 ft | 433 kts | 356° |
| 2026-05-08 14:00 | 24.48282 | 113.42402 | 24892 ft | 435 kts | 356° |
| 2026-05-08 14:00 | 24.51316 | 113.42504 | 25197 ft | 437 kts | 356° |
| 2026-05-08 14:00 | 24.54361 | 113.42610 | 25497 ft | 439 kts | 356° |
| 2026-05-08 14:00 | 24.57422 | 113.42716 | 25786 ft | 441 kts | 356° |
| 2026-05-08 14:01 | 24.60500 | 113.42819 | 26061 ft | 443 kts | 356° |
| 2026-05-08 14:01 | 24.63588 | 113.42920 | 26352 ft | 445 kts | 356° |
| 2026-05-08 14:01 | 24.66686 | 113.43023 | 26618 ft | 447 kts | 356° |
| 2026-05-08 14:01 | 24.69798 | 113.43124 | 26681 ft | 449 kts | 356° |
| 2026-05-08 14:02 | 24.72937 | 113.43214 | 26695 ft | 451 kts | 355° |
| 2026-05-08 14:02 | 24.76071 | 113.43296 | 26695 ft | 451 kts | 355° |
| 2026-05-08 14:02 | 24.79211 | 113.43374 | 26694 ft | 451 kts | 355° |
| 2026-05-08 14:02 | 24.82350 | 113.43454 | 26698 ft | 451 kts | 355° |
| 2026-05-08 14:03 | 24.85482 | 113.43538 | 26698 ft | 451 kts | 355° |
| 2026-05-08 14:03 | 24.88622 | 113.43624 | 26698 ft | 451 kts | 355° |
| 2026-05-08 14:03 | 24.91763 | 113.43712 | 26698 ft | 451 kts | 355° |
| 2026-05-08 14:03 | 24.94901 | 113.43800 | 26711 ft | 451 kts | 355° |
| 2026-05-08 14:04 | 24.98041 | 113.43881 | 26708 ft | 451 kts | 355° |
| 2026-05-08 14:04 | 25.01177 | 113.43961 | 26706 ft | 451 kts | 355° |
| 2026-05-08 14:04 | 25.04315 | 113.44045 | 26704 ft | 451 kts | 355° |
| 2026-05-08 14:04 | 25.07446 | 113.44129 | 26711 ft | 451 kts | 355° |
| 2026-05-08 14:05 | 25.10584 | 113.44215 | 26710 ft | 451 kts | 355° |
| 2026-05-08 14:05 | 25.13716 | 113.44302 | 26708 ft | 451 kts | 355° |
| 2026-05-08 14:05 | 25.16851 | 113.44391 | 26717 ft | 450 kts | 355° |
| 2026-05-08 14:05 | 25.19985 | 113.44481 | 26715 ft | 451 kts | 355° |
| 2026-05-08 14:06 | 25.23122 | 113.44571 | 26732 ft | 450 kts | 355° |
| 2026-05-08 14:06 | 25.26248 | 113.44659 | 26725 ft | 450 kts | 354° |
| 2026-05-08 14:06 | 25.29377 | 113.44744 | 26728 ft | 450 kts | 354° |
| 2026-05-08 14:06 | 25.32507 | 113.44825 | 26725 ft | 451 kts | 355° |
| 2026-05-08 14:07 | 25.35651 | 113.44905 | 26715 ft | 451 kts | 354° |
| 2026-05-08 14:07 | 25.38750 | 113.44987 | 26718 ft | 451 kts | 355° |
| 2026-05-08 14:07 | 25.41887 | 113.45073 | 26726 ft | 451 kts | 354° |
| 2026-05-08 14:07 | 25.45026 | 113.45161 | 26723 ft | 451 kts | 354° |
| 2026-05-08 14:08 | 25.48164 | 113.45249 | 26724 ft | 451 kts | 355° |
| 2026-05-08 14:08 | 25.51303 | 113.45340 | 26750 ft | 451 kts | 354° |
| 2026-05-08 14:08 | 25.54440 | 113.45434 | 26741 ft | 451 kts | 354° |
| 2026-05-08 14:08 | 25.57575 | 113.45526 | 26723 ft | 450 kts | 354° |
| 2026-05-08 14:09 | 25.60704 | 113.45614 | 26732 ft | 450 kts | 354° |
| 2026-05-08 14:09 | 25.63835 | 113.45702 | 26734 ft | 450 kts | 354° |
| 2026-05-08 14:09 | 25.66975 | 113.45789 | 26742 ft | 452 kts | 354° |
| 2026-05-08 14:09 | 25.70129 | 113.45879 | 26736 ft | 451 kts | 354° |
| 2026-05-08 14:10 | 25.73274 | 113.45969 | 26739 ft | 452 kts | 354° |
| 2026-05-08 14:10 | 25.76407 | 113.46061 | 26740 ft | 451 kts | 354° |
| 2026-05-08 14:10 | 25.79549 | 113.46152 | 26766 ft | 451 kts | 354° |
| 2026-05-08 14:10 | 25.82691 | 113.46241 | 26757 ft | 451 kts | 354° |
| 2026-05-08 14:11 | 25.85821 | 113.46332 | 26756 ft | 451 kts | 354° |
| 2026-05-08 14:11 | 25.88962 | 113.46379 | 26755 ft | 450 kts | 352° |
| 2026-05-08 14:11 | 25.92087 | 113.46318 | 26753 ft | 448 kts | 351° |
| 2026-05-08 14:11 | 25.95158 | 113.46182 | 26748 ft | 447 kts | 350° |
| 2026-05-08 14:12 | 25.98262 | 113.46008 | 26750 ft | 446 kts | 350° |
| 2026-05-08 14:12 | 26.01362 | 113.45835 | 26752 ft | 446 kts | 350° |
| 2026-05-08 14:12 | 26.04465 | 113.45678 | 26746 ft | 446 kts | 350° |
| 2026-05-08 14:12 | 26.07572 | 113.45540 | 26757 ft | 447 kts | 351° |
| 2026-05-08 14:13 | 26.10679 | 113.45418 | 26762 ft | 447 kts | 351° |
| 2026-05-08 14:13 | 26.13790 | 113.45305 | 26759 ft | 447 kts | 351° |
| 2026-05-08 14:13 | 26.16906 | 113.45195 | 26754 ft | 447 kts | 351° |
| 2026-05-08 14:13 | 26.20018 | 113.45087 | 26758 ft | 448 kts | 351° |
| 2026-05-08 14:14 | 26.22077 | 113.45015 | 26759 ft | 448 kts | 351° |
| 2026-05-08 14:14 | 26.26248 | 113.44863 | 26758 ft | 447 kts | 351° |
| 2026-05-08 14:14 | 26.29357 | 113.44746 | 26753 ft | 447 kts | 351° |
| 2026-05-08 14:14 | 26.32466 | 113.44625 | 26753 ft | 447 kts | 351° |
| 2026-05-08 14:15 | 26.35570 | 113.44503 | 26754 ft | 447 kts | 351° |
| 2026-05-08 14:15 | 26.38677 | 113.44382 | 26754 ft | 447 kts | 351° |
| 2026-05-08 14:15 | 26.41783 | 113.44258 | 26752 ft | 447 kts | 351° |
| 2026-05-08 14:15 | 26.44891 | 113.44136 | 26752 ft | 447 kts | 351° |
| 2026-05-08 14:16 | 26.46954 | 113.44057 | 26749 ft | 447 kts | 351° |
| 2026-05-08 14:16 | 26.51117 | 113.43904 | 26748 ft | 447 kts | 351° |
| 2026-05-08 14:16 | 26.54223 | 113.43787 | 26747 ft | 447 kts | 351° |
| 2026-05-08 14:16 | 26.56289 | 113.43708 | 26745 ft | 447 kts | 351° |
| 2026-05-08 14:17 | 26.60440 | 113.43548 | 26743 ft | 447 kts | 351° |
| 2026-05-08 14:17 | 26.62507 | 113.43467 | 26748 ft | 451 kts | 351° |
| 2026-05-08 14:17 | 26.65674 | 113.43338 | 26767 ft | 459 kts | 350° |
| 2026-05-08 14:17 | 26.69945 | 113.43167 | 26755 ft | 468 kts | 351° |
| 2026-05-08 14:18 | 26.72147 | 113.43079 | 26752 ft | 471 kts | 351° |
| 2026-05-08 14:18 | 26.75441 | 113.42951 | 26761 ft | 475 kts | 351° |
| 2026-05-08 14:18 | 26.78755 | 113.42826 | 26768 ft | 477 kts | 351° |
| 2026-05-08 14:18 | 26.82082 | 113.42698 | 26758 ft | 479 kts | 351° |
| 2026-05-08 14:19 | 26.85419 | 113.42572 | 26758 ft | 481 kts | 351° |
| 2026-05-08 14:19 | 26.88772 | 113.42448 | 26761 ft | 483 kts | 351° |
| 2026-05-08 14:19 | 26.92140 | 113.42323 | 26777 ft | 484 kts | 351° |
| 2026-05-08 14:19 | 26.95510 | 113.42196 | 26760 ft | 485 kts | 351° |
| 2026-05-08 14:20 | 26.98880 | 113.42068 | 26765 ft | 485 kts | 351° |
| 2026-05-08 14:20 | 27.02257 | 113.41934 | 26766 ft | 485 kts | 351° |
| 2026-05-08 14:20 | 27.05634 | 113.41797 | 26763 ft | 485 kts | 351° |
| 2026-05-08 14:20 | 27.09009 | 113.41663 | 26769 ft | 486 kts | 351° |
| 2026-05-08 14:21 | 27.12390 | 113.41533 | 26768 ft | 486 kts | 351° |
| 2026-05-08 14:21 | 27.15765 | 113.41405 | 26769 ft | 486 kts | 351° |
| 2026-05-08 14:21 | 27.19150 | 113.41275 | 26769 ft | 486 kts | 351° |
| 2026-05-08 14:21 | 27.22521 | 113.41146 | 26789 ft | 486 kts | 351° |
| 2026-05-08 14:22 | 27.25905 | 113.41018 | 26785 ft | 486 kts | 351° |
| 2026-05-08 14:22 | 27.29284 | 113.40889 | 26775 ft | 486 kts | 351° |
| 2026-05-08 14:22 | 27.32662 | 113.40763 | 26777 ft | 486 kts | 351° |
| 2026-05-08 14:22 | 27.36043 | 113.40702 | 26769 ft | 488 kts | 352° |
| 2026-05-08 14:23 | 27.39447 | 113.40737 | 26758 ft | 489 kts | 354° |
| 2026-05-08 14:23 | 27.42852 | 113.40834 | 26763 ft | 490 kts | 354° |
| 2026-05-08 14:23 | 27.46264 | 113.40955 | 26763 ft | 491 kts | 354° |
| 2026-05-08 14:23 | 27.49638 | 113.41069 | 26781 ft | 490 kts | 354° |
| 2026-05-08 14:24 | 27.53045 | 113.41164 | 26777 ft | 490 kts | 354° |
| 2026-05-08 14:24 | 27.56454 | 113.41239 | 26774 ft | 490 kts | 353° |
| 2026-05-08 14:24 | 27.59868 | 113.41303 | 26767 ft | 490 kts | 353° |
| 2026-05-08 14:24 | 27.63279 | 113.41362 | 26767 ft | 490 kts | 353° |
| 2026-05-08 14:25 | 27.66688 | 113.41440 | 26767 ft | 492 kts | 354° |
| 2026-05-08 14:25 | 27.70113 | 113.41632 | 26768 ft | 494 kts | 356° |
| 2026-05-08 14:25 | 27.73549 | 113.41928 | 26769 ft | 495 kts | 357° |
| 2026-05-08 14:25 | 27.76982 | 113.42286 | 26798 ft | 496 kts | 358° |
| 2026-05-08 14:26 | 27.80430 | 113.42667 | 26793 ft | 497 kts | 358° |
| 2026-05-08 14:26 | 27.83872 | 113.43034 | 26775 ft | 497 kts | 358° |
| 2026-05-08 14:26 | 27.87315 | 113.43376 | 26775 ft | 496 kts | 357° |
| 2026-05-08 14:26 | 27.90755 | 113.43691 | 26774 ft | 496 kts | 357° |
| 2026-05-08 14:27 | 27.94198 | 113.43985 | 26778 ft | 496 kts | 357° |
| 2026-05-08 14:27 | 27.97631 | 113.44267 | 26782 ft | 496 kts | 356° |
| 2026-05-08 14:27 | 28.01083 | 113.44554 | 26784 ft | 496 kts | 357° |
| 2026-05-08 14:27 | 28.04522 | 113.44845 | 26810 ft | 496 kts | 357° |
| 2026-05-08 14:28 | 28.07969 | 113.45140 | 26810 ft | 496 kts | 357° |
| 2026-05-08 14:28 | 28.11410 | 113.45430 | 26807 ft | 496 kts | 356° |
| 2026-05-08 14:28 | 28.14850 | 113.45695 | 26809 ft | 495 kts | 356° |
| 2026-05-08 14:28 | 28.18288 | 113.45939 | 26805 ft | 495 kts | 356° |
| 2026-05-08 14:29 | 28.21724 | 113.46170 | 26802 ft | 495 kts | 356° |
| 2026-05-08 14:29 | 28.25162 | 113.46397 | 26799 ft | 495 kts | 356° |
| 2026-05-08 14:29 | 28.28600 | 113.46629 | 26799 ft | 495 kts | 356° |
| 2026-05-08 14:29 | 28.32044 | 113.46870 | 26816 ft | 495 kts | 356° |
| 2026-05-08 14:30 | 28.35488 | 113.47117 | 26813 ft | 495 kts | 356° |
| 2026-05-08 14:30 | 28.38922 | 113.47369 | 26809 ft | 495 kts | 356° |
| 2026-05-08 14:30 | 28.42317 | 113.47619 | 26809 ft | 495 kts | 356° |
| 2026-05-08 14:30 | 28.45751 | 113.47870 | 26806 ft | 494 kts | 356° |
| 2026-05-08 14:31 | 28.49181 | 113.48117 | 26808 ft | 494 kts | 356° |
| 2026-05-08 14:31 | 28.52621 | 113.48362 | 26802 ft | 494 kts | 356° |
| 2026-05-08 14:31 | 28.56058 | 113.48605 | 26827 ft | 494 kts | 356° |
| 2026-05-08 14:32 | 28.62922 | 113.49098 | 26812 ft | 494 kts | 356° |
| 2026-05-08 14:32 | 28.66352 | 113.49344 | 26805 ft | 494 kts | 356° |
| 2026-05-08 14:32 | 28.69785 | 113.49589 | 26801 ft | 494 kts | 356° |
| 2026-05-08 14:32 | 28.73214 | 113.49833 | 26796 ft | 494 kts | 356° |
| 2026-05-08 14:33 | 28.76650 | 113.50079 | 26792 ft | 494 kts | 356° |
| 2026-05-08 14:33 | 28.80076 | 113.50326 | 26789 ft | 494 kts | 356° |
| 2026-05-08 14:33 | 28.83503 | 113.50573 | 26812 ft | 494 kts | 356° |
| 2026-05-08 14:33 | 28.86936 | 113.50821 | 26805 ft | 494 kts | 356° |
| 2026-05-08 14:34 | 28.90369 | 113.51071 | 26795 ft | 494 kts | 356° |
| 2026-05-08 14:34 | 28.93795 | 113.51321 | 26790 ft | 494 kts | 356° |
| 2026-05-08 14:34 | 28.97230 | 113.51571 | 26789 ft | 494 kts | 356° |
| 2026-05-08 14:34 | 29.00657 | 113.51817 | 26785 ft | 494 kts | 356° |
| 2026-05-08 14:35 | 29.04095 | 113.52064 | 26779 ft | 494 kts | 356° |
| 2026-05-08 14:35 | 29.07524 | 113.52310 | 26777 ft | 494 kts | 356° |
| 2026-05-08 14:35 | 29.10952 | 113.52557 | 26775 ft | 494 kts | 356° |
| 2026-05-08 14:35 | 29.14390 | 113.52805 | 26769 ft | 494 kts | 356° |
| 2026-05-08 14:36 | 29.17818 | 113.53054 | 26767 ft | 494 kts | 356° |
| 2026-05-08 14:36 | 29.21263 | 113.53301 | 26761 ft | 494 kts | 356° |
| 2026-05-08 14:36 | 29.24688 | 113.53547 | 26763 ft | 494 kts | 356° |
| 2026-05-08 14:36 | 29.28123 | 113.53792 | 26763 ft | 494 kts | 356° |
| 2026-05-08 14:37 | 29.31559 | 113.54048 | 26759 ft | 495 kts | 356° |
| 2026-05-08 14:37 | 29.34958 | 113.54330 | 26783 ft | 496 kts | 357° |
| 2026-05-08 14:37 | 29.38400 | 113.54635 | 26792 ft | 497 kts | 358° |
| 2026-05-08 14:37 | 29.41846 | 113.54949 | 26790 ft | 497 kts | 358° |
| 2026-05-08 14:38 | 29.45288 | 113.55266 | 26790 ft | 496 kts | 358° |
| 2026-05-08 14:38 | 29.48724 | 113.55576 | 26779 ft | 496 kts | 357° |
| 2026-05-08 14:38 | 29.52174 | 113.55880 | 26783 ft | 496 kts | 357° |
| 2026-05-08 14:38 | 29.55608 | 113.56180 | 26780 ft | 496 kts | 357° |
| 2026-05-08 14:39 | 29.59048 | 113.56478 | 26779 ft | 496 kts | 357° |
| 2026-05-08 14:39 | 29.62489 | 113.56773 | 26796 ft | 496 kts | 358° |
| 2026-05-08 14:39 | 29.65933 | 113.57068 | 26785 ft | 496 kts | 358° |
| 2026-05-08 14:39 | 29.69374 | 113.57366 | 26781 ft | 496 kts | 358° |
| 2026-05-08 14:40 | 29.72822 | 113.57668 | 26781 ft | 497 kts | 358° |
| 2026-05-08 14:40 | 29.76272 | 113.57969 | 26777 ft | 497 kts | 358° |
| 2026-05-08 14:40 | 29.79719 | 113.58269 | 26776 ft | 497 kts | 358° |
| 2026-05-08 14:40 | 29.83159 | 113.58568 | 26774 ft | 497 kts | 358° |
| 2026-05-08 14:41 | 29.86606 | 113.58867 | 26768 ft | 497 kts | 358° |
| 2026-05-08 14:41 | 29.90056 | 113.59168 | 26782 ft | 497 kts | 358° |
| 2026-05-08 14:41 | 29.93497 | 113.59630 | 26775 ft | 503 kts | 5° |
| 2026-05-08 14:41 | 29.96893 | 113.60760 | 26771 ft | 513 kts | 15° |
| 2026-05-08 14:42 | 30.00187 | 113.62387 | 26772 ft | 515 kts | 18° |
| 2026-05-08 14:42 | 30.03471 | 113.64033 | 26768 ft | 515 kts | 17° |
| 2026-05-08 14:42 | 30.06707 | 113.65867 | 26763 ft | 522 kts | 25° |
| 2026-05-08 14:42 | 30.09692 | 113.68300 | 26762 ft | 530 kts | 35° |
| 2026-05-08 14:43 | 30.12475 | 113.71090 | 26782 ft | 531 kts | 36° |
| 2026-05-08 14:43 | 30.15251 | 113.73900 | 26776 ft | 531 kts | 36° |
| 2026-05-08 14:43 | 30.18029 | 113.76715 | 26762 ft | 531 kts | 36° |
| 2026-05-08 14:43 | 30.20812 | 113.79531 | 26761 ft | 531 kts | 36° |
| 2026-05-08 14:44 | 30.23591 | 113.82342 | 26761 ft | 531 kts | 36° |
| 2026-05-08 14:44 | 30.26372 | 113.85156 | 26760 ft | 531 kts | 36° |
| 2026-05-08 14:44 | 30.29117 | 113.87936 | 26757 ft | 531 kts | 36° |
| 2026-05-08 14:44 | 30.31852 | 113.90710 | 26767 ft | 513 kts | 36° |
| 2026-05-08 14:45 | 30.34501 | 113.93404 | 26602 ft | 502 kts | 36° |
| 2026-05-08 14:45 | 30.37116 | 113.96059 | 26356 ft | 499 kts | 36° |
| 2026-05-08 14:45 | 30.39726 | 113.98703 | 26125 ft | 498 kts | 36° |
| 2026-05-08 14:45 | 30.42330 | 114.01337 | 25855 ft | 497 kts | 36° |
| 2026-05-08 14:46 | 30.44909 | 114.03952 | 24996 ft | 486 kts | 36° |
| 2026-05-08 14:46 | 30.47418 | 114.06509 | 24174 ft | 471 kts | 36° |
| 2026-05-08 14:46 | 30.49843 | 114.08985 | 23332 ft | 458 kts | 36° |
| 2026-05-08 14:46 | 30.52322 | 114.11154 | 22587 ft | 439 kts | 26° |
| 2026-05-08 14:47 | 30.55009 | 114.12739 | 21917 ft | 427 kts | 16° |
| 2026-05-08 14:47 | 30.57827 | 114.13750 | 21245 ft | 421 kts | 6° |
| 2026-05-08 14:47 | 30.60693 | 114.14200 | 20626 ft | 413 kts | 357° |
| 2026-05-08 14:47 | 30.63541 | 114.14119 | 20033 ft | 406 kts | 351° |
| 2026-05-08 14:48 | 30.66349 | 114.13885 | 19453 ft | 404 kts | 352° |
| 2026-05-08 14:48 | 30.69147 | 114.13659 | 18905 ft | 402 kts | 352° |
| 2026-05-08 14:48 | 30.71927 | 114.13436 | 18340 ft | 400 kts | 352° |
| 2026-05-08 14:48 | 30.74689 | 114.13217 | 17778 ft | 396 kts | 353° |
| 2026-05-08 14:49 | 30.77427 | 114.13000 | 17257 ft | 391 kts | 353° |
| 2026-05-08 14:49 | 30.80092 | 114.12818 | 16731 ft | 388 kts | 357° |
| 2026-05-08 14:49 | 30.82777 | 114.13121 | 16180 ft | 389 kts | 10° |
| 2026-05-08 14:49 | 30.85347 | 114.14092 | 15606 ft | 389 kts | 22° |
| 2026-05-08 14:50 | 30.87677 | 114.15679 | 15011 ft | 390 kts | 35° |
| 2026-05-08 14:50 | 30.89756 | 114.17742 | 14410 ft | 389 kts | 40° |
| 2026-05-08 14:50 | 30.91785 | 114.19826 | 13757 ft | 388 kts | 40° |
| 2026-05-08 14:50 | 30.93798 | 114.21889 | 13068 ft | 378 kts | 40° |
| 2026-05-08 14:51 | 30.95703 | 114.23841 | 12522 ft | 362 kts | 40° |
| 2026-05-08 14:51 | 30.97554 | 114.25737 | 12386 ft | 347 kts | 40° |
| 2026-05-08 14:51 | 30.99327 | 114.27550 | 12256 ft | 333 kts | 40° |
| 2026-05-08 14:51 | 31.01034 | 114.29297 | 12127 ft | 320 kts | 40° |
| 2026-05-08 14:52 | 31.02675 | 114.30975 | 12002 ft | 304 kts | 41° |
| 2026-05-08 14:52 | 31.05633 | 114.34004 | 11611 ft | 268 kts | 41° |
| 2026-05-08 14:52 | 31.07026 | 114.35435 | 11368 ft | 265 kts | 41° |
| 2026-05-08 14:53 | 31.08402 | 114.36850 | 11129 ft | 262 kts | 41° |
| 2026-05-08 14:53 | 31.09762 | 114.38249 | 10889 ft | 260 kts | 41° |
| 2026-05-08 14:53 | 31.11118 | 114.39645 | 10645 ft | 259 kts | 41° |
| 2026-05-08 14:53 | 31.12472 | 114.41041 | 10280 ft | 261 kts | 41° |
| 2026-05-08 14:54 | 31.13647 | 114.42656 | 9852 ft | 264 kts | 66° |
| 2026-05-08 14:54 | 31.13970 | 114.44738 | 9439 ft | 265 kts | 98° |
| 2026-05-08 14:54 | 31.13300 | 114.46703 | 9008 ft | 265 kts | 128° |
| 2026-05-08 14:54 | 31.12091 | 114.48299 | 8737 ft | 260 kts | 132° |
| 2026-05-08 14:55 | 31.10883 | 114.49859 | 8331 ft | 257 kts | 132° |
| 2026-05-08 14:55 | 31.09685 | 114.51389 | 7750 ft | 254 kts | 137° |
| 2026-05-08 14:55 | 31.08169 | 114.52373 | 7200 ft | 249 kts | 169° |
| 2026-05-08 14:55 | 31.06470 | 114.52270 | 6669 ft | 245 kts | 201° |
| 2026-05-08 14:56 | 31.05085 | 114.51209 | 6335 ft | 232 kts | 223° |
| 2026-05-08 14:56 | 31.03934 | 114.50001 | 6272 ft | 214 kts | 221° |
| 2026-05-08 14:56 | 31.02847 | 114.48879 | 6185 ft | 206 kts | 221° |
| 2026-05-08 14:56 | 31.01767 | 114.47782 | 6090 ft | 205 kts | 221° |
| 2026-05-08 14:57 | 31.00697 | 114.46688 | 5869 ft | 204 kts | 221° |
| 2026-05-08 14:57 | 30.99658 | 114.45620 | 5645 ft | 199 kts | 221° |
| 2026-05-08 14:57 | 30.98616 | 114.44547 | 5359 ft | 195 kts | 221° |
| 2026-05-08 14:57 | 30.97621 | 114.43523 | 5101 ft | 191 kts | 221° |
| 2026-05-08 14:58 | 30.96638 | 114.42509 | 4853 ft | 187 kts | 221° |
| 2026-05-08 14:58 | 30.95673 | 114.41516 | 4598 ft | 183 kts | 221° |
| 2026-05-08 14:58 | 30.94726 | 114.40542 | 4348 ft | 180 kts | 221° |
| 2026-05-08 14:58 | 30.93800 | 114.39589 | 4118 ft | 176 kts | 221° |
| 2026-05-08 14:59 | 30.92887 | 114.38650 | 3883 ft | 173 kts | 221° |
| 2026-05-08 14:59 | 30.91113 | 114.36825 | 3437 ft | 167 kts | 221° |
| 2026-05-08 14:59 | 30.90251 | 114.35939 | 3213 ft | 164 kts | 221° |
| 2026-05-08 15:00 | 30.89401 | 114.35066 | 2999 ft | 161 kts | 221° |
| 2026-05-08 15:00 | 30.88567 | 114.34209 | 2788 ft | 159 kts | 221° |
| 2026-05-08 15:00 | 30.87756 | 114.33376 | 2596 ft | 149 kts | 221° |
| 2026-05-08 15:00 | 30.87000 | 114.32600 | 2391 ft | 142 kts | 221° |
| 2026-05-08 15:01 | 30.86267 | 114.31847 | 2205 ft | 140 kts | 221° |
| 2026-05-08 15:01 | 30.85541 | 114.31102 | 2022 ft | 138 kts | 221° |
| 2026-05-08 15:01 | 30.84822 | 114.30364 | 1839 ft | 137 kts | 221° |
| 2026-05-08 15:01 | 30.84105 | 114.29629 | 1667 ft | 137 kts | 221° |
| 2026-05-08 15:02 | 30.83395 | 114.28900 | 1465 ft | 136 kts | 221° |
| 2026-05-08 15:02 | 30.82687 | 114.28174 | 1293 ft | 135 kts | 221° |
| 2026-05-08 15:02 | 30.81983 | 114.27448 | 1112 ft | 134 kts | 222° |
| 2026-05-08 15:02 | 30.81520 | 114.26971 | 1020 ft | 135 kts | 221° |
| 2026-05-08 15:03 | 30.80578 | 114.26001 | 781 ft | 135 kts | 221° |
| 2026-05-08 15:03 | 30.80111 | 114.25522 | 651 ft | 136 kts | 221° |
| 2026-05-08 15:03 | 30.79400 | 114.24796 | 450 ft | 136 kts | 221° |
| 2026-05-08 15:03 | 30.78686 | 114.24070 | 274 ft | 136 kts | 221° |
| 2026-05-08 15:04 | 30.77973 | 114.23349 | 123 ft | 135 kts | 222° |
| 2026-05-08 15:04 | 30.77372 | 114.22717 | 109 ft | 93 kts | 221° |
| 2026-05-08 15:04 | 30.77006 | 114.22343 | 109 ft | 51 kts | 221° |
| 2026-05-08 15:04 | 30.76824 | 114.22141 | 110 ft | 30 kts | 236° |
| 2026-05-08 15:05 | 30.76752 | 114.21972 | 110 ft | 14 kts | 246° |
| 2026-05-08 15:05 | 30.76723 | 114.21894 | 109 ft | 10 kts | 247° |
| 2026-05-08 15:05 | 30.76699 | 114.21820 | 107 ft | 9 kts | 249° |
| 2026-05-08 15:05 | 30.76720 | 114.21763 | 108 ft | 8 kts | 309° |
| 2026-05-08 15:06 | 30.76757 | 114.21720 | 106 ft | 7 kts | 331° |
| 2026-05-08 15:06 | 30.76796 | 114.21734 | 108 ft | 6 kts | 41° |
| 2026-05-08 15:06 | 30.76841 | 114.21779 | 108 ft | 12 kts | 41° |
| 2026-05-08 15:06 | 30.76919 | 114.21860 | 108 ft | 18 kts | 41° |
| 2026-05-08 15:07 | 30.77020 | 114.21962 | 108 ft | 19 kts | 42° |
| 2026-05-08 15:07 | 30.77106 | 114.22050 | 107 ft | 16 kts | 41° |
| 2026-05-08 15:07 | 30.77187 | 114.22134 | 107 ft | 13 kts | 41° |
| 2026-05-08 15:07 | 30.77242 | 114.22157 | 107 ft | 8 kts | 338° |
| 2026-05-08 15:08 | 30.77279 | 114.22112 | 107 ft | 9 kts | 313° |
| 2026-05-08 15:08 | 30.77317 | 114.22064 | 106 ft | 7 kts | 311° |
| 2026-05-08 15:08 | 30.77347 | 114.22023 | 107 ft | 6 kts | 311° |
| 2026-05-08 15:08 | 30.77377 | 114.21984 | 107 ft | 7 kts | 311° |
| 2026-05-08 15:09 | 30.77395 | 114.21952 | 108 ft | 4 kts | 282° |
| 2026-05-08 15:09 | 30.77379 | 114.21926 | 106 ft | 6 kts | 225° |
| 2026-05-08 15:09 | 30.77350 | 114.21895 | 107 ft | 5 kts | 223° |
| 2026-05-08 15:09 | 30.77331 | 114.21876 | 108 ft | 2 kts | 221° |
| 2026-05-08 15:10 | 30.77327 | 114.21872 | 108 ft | 0 kts | 221° |